Temp     Hi    Low   Out    Dew  Wind  Wind   Wind    Hi    Hi   Wind   Heat    THW   THSW                Rain  Solar   Solar Hi Solar   UV    UV    Hi     Heat    Cool    In     In    In     In     In   In Air          Wind  Wind    ISS   Arc.
  Date    Time     Out   Temp   Temp   Hum    Pt. Speed   Dir    Run Speed   Dir  Chill  Index  Index  Index   Bar    Rain  Rate   Rad.  Energy    Rad.  Index  Dose   UV     D-D     D-D    Temp   Hum    Dew   Heat    EMC Density     ET   Samp   Tx   Recept  Int.
------------------------------------------------------------------------------------------------------------------------------------------------------------------------------------------------------------------------------------------------------------------------
10/16/18 12:30a   36.6   37.4   36.6    35   11.5   0.0   ---   0.00   0.0   ---   36.6   35.3   35.3   29.6  30.142  0.00  0.00     0     0.00      0     0.0  0.00   0.0   0.592   0.000   71.6    30   38.5   68.5   6.19  .0747    0.000   681    2    100.0   30 
10/16/18  1:00a   36.1   36.6   36.1    34   10.4   0.0   ---   0.00   0.0   ---   36.1   34.8   34.8   29.0  30.140  0.00  0.00     0     0.00      0     0.0  0.00   0.0   0.602   0.000   71.1    30   38.1   67.8   6.21  .0747    0.001   683    2    100.0   30 
10/16/18  1:30a   35.7   36.1   35.7    31    8.0   0.0   ---   0.00   0.0   ---   35.7   34.3   34.3   28.5  30.141  0.00  0.00     0     0.00      0     0.0  0.00   0.0   0.610   0.000   70.6    29   36.8   67.1   6.03  .0748    0.000   670    2    100.0   30 
10/16/18  2:00a   35.7   35.7   35.6    35   10.7   0.0   ---   0.00   0.0   ---   35.7   34.4   34.4   28.6  30.144  0.00  0.00     0     0.00      0     0.0  0.00   0.0   0.610   0.000   70.1    29   36.3   66.4   6.05  .0749    0.001   685    2    100.0   30 
10/16/18  2:30a   35.8   35.9   35.7    36   11.4   0.0   ---   0.00   0.0   ---   35.8   34.5   34.5   28.8  30.146  0.00  0.00     0     0.00      0     0.0  0.00   0.0   0.608   0.000   69.7    29   36.0   66.0   6.06  .0750    0.000   683    2    100.0   30 
10/16/18  3:00a   35.5   35.9   35.5    37   11.8   0.0   ---   0.00   0.0   ---   35.5   34.3   34.3   28.6  30.146  0.00  0.00     0     0.00      0     0.0  0.00   0.0   0.615   0.000   69.4    29   35.7   65.7   6.06  .0750    0.001   670    2    100.0   30 
10/16/18  3:30a   35.2   35.5   35.1    39   12.7   0.0   ---   0.00   0.0   ---   35.2   34.1   34.1   28.4  30.142  0.00  0.00     0     0.00      0     0.0  0.00   0.0   0.621   0.000   68.9    30   36.2   65.3   6.25  .0751    0.000   612    2     91.8   30 
10/16/18  4:00a   34.8   35.3   34.8    40   12.9   0.0   ---   0.00   0.0   ---   34.8   33.7   33.7   28.0  30.145  0.00  0.00     0     0.00      0     0.0  0.00   0.0   0.629   0.000   68.5    30   35.8   64.9   6.25  .0752    0.001   684    2    100.0   30 
10/16/18  4:30a   34.3   34.8   34.3    44   14.6   0.0   ---   0.00   0.0   ---   34.3   33.3   33.3   27.7  30.149  0.00  0.00     0     0.00      0     0.0  0.00   0.0   0.640   0.000   68.2    30   35.6   64.6   6.25  .0752    0.000   670    2    100.0   30 
10/16/18  5:00a   33.9   34.3   33.9    45   14.8   0.0   ---   0.00   0.0   ---   33.9   32.9   32.9   27.3  30.153  0.00  0.00     0     0.00      0     0.0  0.00   0.0   0.648   0.000   68.0    30   35.4   64.4   6.25  .0753    0.001   571    2     85.6   30 
10/16/18  5:30a   33.7   33.9   33.7    46   15.1   0.0   ---   0.00   0.0   ---   33.7   32.7   32.7   27.1  30.163  0.00  0.00     0     0.00      0     0.0  0.00   0.0   0.652   0.000   67.5    30   35.0   63.9   6.25  .0754    0.000   682    2    100.0   30 
10/16/18  6:00a   33.9   34.0   33.7    49   16.7   0.0   ---   0.00   0.0   ---   33.9   33.0   33.0   27.4  30.171  0.00  0.00     0     0.00      0     0.0  0.00   0.0   0.648   0.000   67.2    30   34.7   63.6   6.25  .0754    0.001   673    2    100.0   30 
10/16/18  6:30a   34.0   34.1   33.9    49   16.8   0.0   ---   0.00   0.0   ---   34.0   33.1   33.1   27.5  30.176  0.00  0.00     0     0.00      0     0.0  0.00   0.0   0.646   0.000   66.9    30   34.4   63.3   6.25  .0755    0.000   684    2    100.0   30 
10/16/18  7:00a   34.2   34.2   33.9    47   16.0   0.0   ---   0.00   0.0   ---   34.2   33.2   33.2   27.6  30.181  0.00  0.00     0     0.00      0     0.0  0.00   0.0   0.642   0.000   66.6    30   34.2   63.0   6.25  .0756    0.000   599    2     89.8   30 
10/16/18  7:30a   34.2   34.2   34.1    52   18.4   0.0   ---   0.00   0.0   ---   34.2   33.3   33.3   27.9  30.185  0.00  0.00     7     0.30     12     0.0  0.00   0.0   0.642   0.000   68.5    29   35.0   64.8   6.08  .0753    0.000   673    2    100.0   30 
10/16/18  8:00a   35.9   35.9   34.2    48   18.1   0.0     N   0.00   6.0     N   35.9   34.9   34.9   32.2  30.187  0.00  0.00    15     0.65     18     0.0  0.00   0.0   0.606   0.000   69.9    29   36.2   66.2   6.05  .0751    0.000   683    2    100.0   30 
10/16/18  8:30a   38.1   38.1   35.9    47   19.6   0.0   ---   0.00   0.0   ---   38.1   37.0   37.0   34.4  30.199  0.00  0.00    20     0.86     23     0.0  0.00   0.0   0.560   0.000   69.6    29   35.9   65.9   6.06  .0751    0.000   683    2    100.0   30 
10/16/18  9:00a   43.5   43.5   38.1    39   20.2   0.0   ---   0.00   0.0   ---   43.5   42.1   42.1   39.6  30.195  0.00  0.00    25     1.08     30     0.0  0.00   0.0   0.448   0.000   71.1    30   38.1   67.8   6.21  .0749    0.001   685    2    100.0   30 
10/16/18  9:30a   55.3   55.3   43.5    19   13.7   3.0   ENE   1.50  10.0   ENE   55.3   51.6   51.6   51.2  30.194  0.00  0.00    89     3.83    376     0.1  0.02   0.8   0.202   0.000   72.1    30   38.9   69.3   6.17  .0747    0.000   672    2    100.0   30 
10/16/18 10:00a   61.5   61.5   55.3    15   13.4   8.0    SE   4.00  17.0    SE   60.3   56.5   55.3   56.2  30.184  0.00  0.00   142     6.11    383     0.7  0.11   1.3   0.073   0.000   72.3    30   39.1   69.6   6.16  .0747    0.006   675    2    100.0   30 
10/16/18 10:30a   63.9   63.9   61.6    14   13.7  11.0     E   5.50  21.0     E   60.8   58.4   55.3   54.4  30.179  0.00  0.00    85     3.66    413     0.6  0.10   1.7   0.023   0.000   72.4    30   39.2   69.7   6.15  .0746    0.000   686    2    100.0   30 
10/16/18 11:00a   65.6   65.6   63.9    13   13.4  10.0     E   5.00  21.0     E   63.5   60.0   57.9   58.3  30.171  0.00  0.00   145     6.24    594     0.8  0.13   2.0   0.000   0.012   72.4    29   38.3   69.6   5.95  .0746    0.011   678    2    100.0   30 
10/16/18 11:30a   67.3   67.4   65.6    12   12.9   9.0     E   4.50  17.0     E   66.0   61.6   60.3   67.5  30.163  0.00  0.00   571    24.56    643     2.0  0.32   2.9   0.000   0.048   72.3    29   38.2   69.5   5.96  .0746    0.000   675    2    100.0   30 
10/16/18 12:00p   68.3   68.3   67.3    12   13.7   7.0   ENE   3.50  22.0   ENE   68.3   62.6   62.6   70.9  30.156  0.00  0.00   661    28.43    677     3.1  0.50   3.2   0.000   0.069   72.4    24   33.5   69.1   5.25  .0747    0.020   685    2    100.0   30 
10/16/18 12:30p   67.1   68.3   66.3    10    8.6   5.0     E   2.50  25.0     E   67.1   61.2   61.2    ---  30.146  0.00  0.00   ---      ---    ---     ---   ---   ---   0.000   0.044   71.9    16   23.2   67.6   3.87  .0749    0.000   621    2     93.1   30 
10/16/18  1:00p   68.3   68.3   67.3    10    9.5   7.0     E   3.50  21.0     E   68.3   62.4   62.4    ---  30.137  0.00  0.00   ---      ---    ---     ---   ---   ---   0.000   0.069   71.4    15   21.3   66.9   3.69  .0750    0.000   670    2    100.0   30 
10/16/18  1:30p   67.9   68.6   67.3    10    9.2   7.0   ESE   3.50  18.0     E   67.9   61.9   61.9    ---  30.123  0.00  0.00   ---      ---    ---     ---   ---   ---   0.000   0.060   71.6    19   27.1   67.5   4.35  .0748    0.000   679    2    100.0   30 
10/16/18  2:00p   67.4   68.4   67.3    11   11.0   5.0     E   2.50  14.0     E   67.4   61.6   61.6    ---  30.116  0.00  0.00   ---      ---    ---     ---   ---   ---   0.000   0.050   71.9    19   27.4   67.9   4.35  .0748    0.000   681    2    100.0   30 
10/16/18  2:30p   69.1   69.3   67.6     9    7.8   4.0    SE   2.00  13.0   ESE   69.1   63.3   63.3    ---  30.112  0.00  0.00   ---      ---    ---     ---   ---   ---   0.000   0.085   72.1    19   27.5   68.2   4.35  .0747    0.000   686    2    100.0   30 
10/16/18  3:00p   69.6   69.8   68.3    10   10.5   2.0     E   1.00  11.0   ESE   69.6   64.0   64.0    ---  30.103  0.00  0.00   ---      ---    ---     ---   ---   ---   0.000   0.096   72.4    20   29.0   68.7   4.55  .0746    0.000   670    2    100.0   30 
10/16/18  3:30p   69.8   69.9   68.8     9    8.3   2.0   ESE   1.00  10.0   ESE   69.8   64.2   64.2    ---  30.098  0.00  0.00   ---      ---    ---     ---   ---   ---   0.000   0.100   72.8    21   30.6   69.5   4.75  .0745    0.000   679    2    100.0   30 
10/16/18  4:00p   68.1   69.8   68.1    14   17.0   2.0   NNE   1.00  11.0   NNE   68.1   62.6   62.6    ---  30.097  0.00  0.00   ---      ---    ---     ---   ---   ---   0.000   0.065   72.8    23   32.8   69.7   5.09  .0745    0.000   684    2    100.0   30 
10/16/18  4:30p   66.9   68.3   66.9    16   19.2   6.0     N   3.00  11.0     N   66.9   61.5   61.5    ---  30.092  0.00  0.00   ---      ---    ---     ---   ---   ---   0.000   0.040   72.8    23   32.8   69.7   5.09  .0745    0.000   682    2    100.0   30 
10/16/18  5:00p   65.6   66.9   65.6    17   19.6   8.0     N   4.00  15.0     N   65.0   60.3   59.7    ---  30.092  0.00  0.00   ---      ---    ---     ---   ---   ---   0.000   0.012   73.0    24   34.1   70.1   5.23  .0744    0.000   668    2    100.0   30 
10/16/18  5:30p   64.2   65.5   64.2    17   18.4   8.0     N   4.00  14.0     N   63.4   59.0   58.2    ---  30.100  0.00  0.00   ---      ---    ---     ---   ---   ---   0.017   0.000   73.1    24   34.1   70.2   5.23  .0744    0.000   681    2    100.0   30 
10/16/18  6:00p   62.0   64.2   62.0    18   18.0   5.0   NNW   2.50  11.0     N   62.0   57.1   57.1    ---  30.101  0.00  0.00   ---      ---    ---     ---   ---   ---   0.063   0.000   73.1    24   34.1   70.2   5.23  .0744    0.000   686    2    100.0   30 
10/16/18  6:30p   60.9   62.0   60.9    23   22.8   0.0     N   0.00   2.0   NNW   60.9   56.5   56.5   51.3  30.106  0.00  0.00     2     0.09      7     0.0  0.00   0.0   0.085   0.000   73.1    23   33.1   70.1   5.09  .0745    0.000   677    2    100.0   30 
10/16/18  7:00p   58.8   60.9   58.8    26   23.9   0.0   ---   0.00   0.0   ---   58.8   54.9   54.9   49.7  30.124  0.00  0.00     0     0.00      0     0.0  0.00   0.0   0.129   0.000   73.8    28   38.6   71.7   5.72  .0743      ---   568    2     85.2   30 
10/16/18  7:30p   56.2   58.7   56.2    29   24.3   0.0   ---   0.00   0.0   ---   56.2   53.0   53.0   48.0  30.129  0.00  0.00     0     0.00      0     0.0  0.00   0.0   0.183   0.000   74.0    29   39.7   72.2   5.89  .0743    0.000   675    2    100.0   30 
10/16/18  8:00p   53.4   56.1   53.4    31   23.5   0.0   NNW   0.00   6.0   NNW   53.4   50.8   50.8   45.6  30.134  0.00  0.00     0     0.00      0     0.0  0.00   0.0   0.242   0.000   74.0    30   40.6   72.3   6.09  .0743    0.002   682    2    100.0   30 
10/16/18  8:30p   51.3   53.4   51.3    32   22.4   0.0   ---   0.00   0.0   ---   51.3   49.2   49.2   44.0  30.141  0.00  0.00     0     0.00      0     0.0  0.00   0.0   0.285   0.000   74.0    30   40.6   72.3   6.09  .0743    0.000   675    2    100.0   30 
10/16/18  9:00p   49.2   51.3   49.2    35   22.7   0.0   ---   0.00   0.0   ---   49.2   47.5   47.5   42.3  30.144  0.00  0.00     0     0.00      0     0.0  0.00   0.0   0.329   0.000   73.8    30   40.4   72.0   6.10  .0743    0.002   677    2    100.0   30 
10/16/18  9:30p   47.9   49.2   47.9    34   20.8   0.0   ---   0.00   0.0   ---   47.9   46.2   46.2   40.9  30.148  0.00  0.00     0     0.00      0     0.0  0.00   0.0   0.356   0.000   73.6    30   40.2   71.7   6.11  .0744    0.000   685    2    100.0   30 
10/16/18 10:00p   46.4   47.9   46.4    34   19.5   0.0   ---   0.00   0.0   ---   46.4   44.7   44.7   39.4  30.156  0.00  0.00     0     0.00      0     0.0  0.00   0.0   0.387   0.000   73.5    30   40.2   71.5   6.11  .0744    0.002   674    2    100.0   30 
10/16/18 10:30p   45.0   46.3   44.9    36   19.6   0.0   ---   0.00   0.0   ---   45.0   43.4   43.4   38.1  30.161  0.00  0.00     0     0.00      0     0.0  0.00   0.0   0.417   0.000   73.5    30   40.2   71.5   6.11  .0744    0.000   678    2    100.0   30 
10/16/18 11:00p   43.4   44.9   43.4    35   17.5   0.0   ---   0.00   0.0   ---   43.4   41.8   41.8   36.5  30.160  0.00  0.00     0     0.00      0     0.0  0.00   0.0   0.450   0.000   73.3    30   40.0   71.2   6.12  .0744    0.002   683    2    100.0   30 
10/16/18 11:30p   42.5   43.4   42.5    37   18.0   0.0     N   0.00   5.0   NNW   42.5   41.0   41.0   35.7  30.164  0.00  0.00     0     0.00      0     0.0  0.00   0.0   0.469   0.000   72.8    29   38.7   70.3   5.94  .0745    0.000   674    2    100.0   30 
10/17/18 12:00a   42.3   42.5   42.3    36   17.2   2.0     N   1.00   6.0     N   42.3   40.8   40.8   35.5  30.167  0.00  0.00     0     0.00      0     0.0  0.00   0.0   0.473   0.000   72.3    29   38.2   69.5   5.96  .0746    0.000   614    2     92.1   30 
10/17/18 12:30a   41.3   42.3   41.3    38   17.6   0.0     N   0.00   2.0   NNW   41.3   39.9   39.9   34.6  30.166  0.00  0.00     0     0.00      0     0.0  0.00   0.0   0.494   0.000   71.8    29   37.8   68.7   5.98  .0747    0.002   683    2    100.0   30 
10/17/18  1:00a   40.3   41.3   40.3    39   17.3   0.0     N   0.00   3.0   NNW   40.3   38.9   38.9   33.6  30.164  0.00  0.00     0     0.00      0     0.0  0.00   0.0   0.515   0.000   71.4    29   37.5   68.2   5.99  .0748    0.001   680    2    100.0   30 
10/17/18  1:30a   39.5   40.3   39.5    39   16.6   1.0     N   0.50   4.0   NNW   39.5   38.2   38.2   32.8  30.162  0.00  0.00     0     0.00      0     0.0  0.00   0.0   0.531   0.000   70.9    29   37.0   67.5   6.01  .0748    0.000   674    2    100.0   30 
10/17/18  2:00a   39.1   39.5   39.1    39   16.2   0.0     N   0.00   4.0   NNW   39.1   37.8   37.8   32.4  30.161  0.00  0.00     0     0.00      0     0.0  0.00   0.0   0.540   0.000   70.6    29   36.8   67.1   6.03  .0749    0.001   685    2    100.0   30 
10/17/18  2:30a   39.0   39.1   39.0    39   16.1   0.0     N   0.00   3.0   NNW   39.0   37.7   37.7   32.3  30.160  0.00  0.00     0     0.00      0     0.0  0.00   0.0   0.542   0.000   70.4    29   36.6   66.8   6.03  .0749    0.000   517    2     77.5   30 
10/17/18  3:00a   38.5   39.0   38.5    38   15.1   1.0     N   0.50   5.0   NNW   38.5   37.2   37.2   31.8  30.156  0.00  0.00     0     0.00      0     0.0  0.00   0.0   0.552   0.000   69.7    29   36.0   66.0   6.06  .0750    0.002   672    2    100.0   30 
10/17/18  3:30a   38.1   38.5   38.1    39   15.3   0.0     N   0.00   2.0     N   38.1   36.9   36.9   31.5  30.154  0.00  0.00     0     0.00      0     0.0  0.00   0.0   0.560   0.000   69.4    29   35.7   65.7   6.06  .0751    0.000   685    2    100.0   30 
10/17/18  4:00a   37.4   38.1   37.4    40   15.2   0.0   ---   0.00   0.0   ---   37.4   36.2   36.2   30.8  30.154  0.00  0.00     0     0.00      0     0.0  0.00   0.0   0.575   0.000   69.0    29   35.4   65.3   6.07  .0751    0.001   682    2    100.0   30 
10/17/18  4:30a   36.7   37.4   36.7    41   15.2   0.0     N   0.00   2.0     N   36.7   35.5   35.5   30.1  30.150  0.00  0.00     0     0.00      0     0.0  0.00   0.0   0.590   0.000   68.7    29   35.1   65.0   6.08  .0752    0.000   668    2    100.0   30 
10/17/18  5:00a   36.7   36.8   36.6    41   15.2   0.0   ---   0.00   0.0   ---   36.7   35.5   35.5   30.1  30.152  0.00  0.00     0     0.00      0     0.0  0.00   0.0   0.590   0.000   68.4    29   34.9   64.7   6.08  .0752    0.001   684    2    100.0   30 
10/17/18  5:30a   37.3   37.3   36.7    41   15.7   0.0     N   0.00   2.0     N   37.3   36.1   36.1   30.7  30.149  0.00  0.00     0     0.00      0     0.0  0.00   0.0   0.577   0.000   68.0    29   34.5   64.3   6.09  .0753    0.000   684    2    100.0   30 
10/17/18  6:00a   36.8   37.4   36.8    41   15.3   0.0     N   0.00   2.0   NNW   36.8   35.6   35.6   30.2  30.159  0.00  0.00     0     0.00      0     0.0  0.00   0.0   0.588   0.000   67.7    29   34.3   63.9   6.10  .0754    0.001   671    2    100.0   30 
10/17/18  6:30a   36.5   36.8   36.5    41   15.0   0.0     N   0.00   4.0     N   36.5   35.3   35.3   29.9  30.164  0.00  0.00     0     0.00      0     0.0  0.00   0.0   0.594   0.000   67.4    29   34.0   63.6   6.10  .0754    0.000   685    2    100.0   30 
10/17/18  7:00a   36.0   36.5   36.0    42   15.1   0.0     N   0.00   3.0   NNW   36.0   34.8   34.8   29.4  30.176  0.00  0.00     0     0.00      0     0.0  0.00   0.0   0.604   0.000   67.0    29   33.7   63.2   6.11  .0755    0.000   686    2    100.0   30 
10/17/18  7:30a   35.6   36.0   35.6    43   15.3   0.0   ---   0.00   0.0   ---   35.6   34.5   34.5   29.2  30.181  0.00  0.00     7     0.30     12     0.0  0.00   0.0   0.613   0.000   67.5    29   34.1   63.7   6.10  .0754    0.000   671    2    100.0   30 
10/17/18  8:00a   36.4   36.4   35.6    43   16.0   0.0   ---   0.00   0.0   ---   36.4   35.3   35.3   32.5  30.185  0.00  0.00    15     0.65     18     0.0  0.00   0.0   0.596   0.000   70.1    29   36.3   66.4   6.05  .0750    0.000   682    2    100.0   30 
10/17/18  8:30a   39.9   39.9   36.4    40   17.5   0.0   ---   0.00   0.0   ---   39.9   38.6   38.6   36.0  30.188  0.00  0.00    20     0.86     23     0.0  0.00   0.0   0.523   0.000   70.6    31   38.5   67.3   6.34  .0749    0.000   686    2    100.0   30 
10/17/18  9:00a   44.6   44.6   39.9    31   15.8   0.0   ---   0.00   0.0   ---   44.6   42.9   42.9   40.4  30.194  0.00  0.00    26     1.12     65     0.0  0.00   0.6   0.425   0.000   72.1    30   38.9   69.3   6.17  .0747    0.001   683    2    100.0   30 
10/17/18  9:30a   51.1   51.1   44.6    26   17.4   0.0   ---   0.00   0.0   ---   51.1   48.7   48.7   47.7  30.194  0.00  0.00    71     3.05    364     0.2  0.03   0.8   0.290   0.000   72.6    29   38.5   70.0   5.95  .0747    0.000   685    2    100.0   30 
10/17/18 10:00a   56.3   56.3   51.2    21   16.8   0.0   ---   0.00   0.0   ---   56.3   52.5   52.5   53.3  30.188  0.00  0.00   134     5.76    396     0.5  0.08   1.3   0.181   0.000   72.4    29   38.3   69.6   5.95  .0747    0.002   668    2    100.0   30 
10/17/18 10:30a   62.3   62.3   56.3    17   16.9   1.0     N   0.50   5.0     N   62.3   57.3   57.3   55.9  30.181  0.00  0.00    73     3.14    271     0.4  0.06   1.3   0.056   0.000   72.4    29   38.3   69.6   5.95  .0747    0.000   680    2    100.0   30 
10/17/18 11:00a   65.6   65.6   62.3    15   16.6   2.0   NNE   1.00   7.0   NNE   65.6   60.1   60.1   58.7  30.176  0.00  0.00    75     3.23    183     0.8  0.13   2.1   0.000   0.012   72.4    29   38.3   69.6   5.95  .0746    0.000   682    2    100.0   30 
10/17/18 11:30a   68.3   68.3   65.7    14   17.2   0.0   NNE   0.00   6.0   NNE   68.3   62.8   62.8   71.2  30.167  0.00  0.00   603    25.93    638     2.0  0.32   2.7   0.000   0.069   72.6    29   38.5   70.0   5.95  .0746    0.003   675    2    100.0   30 
10/17/18 12:00p   69.9   69.9   68.3    13   16.8   0.0   ---   0.00   0.0   ---   69.9   64.7   64.7   73.3  30.164  0.00  0.00   655    28.17    670     2.8  0.45   3.0   0.000   0.102   72.6    29   38.5   70.0   5.95  .0746    0.014   679    2    100.0   30 
10/17/18 12:30p   67.6   69.9   67.6    12   13.1   0.0   ---   0.00   0.0   ---   67.6   61.8   61.8    ---  30.160  0.00  0.00   ---      ---    ---     ---   ---   ---   0.000   0.054   72.8    29   38.7   70.3   5.94  .0745    0.000   637    2     95.5   30 
10/17/18  1:00p   68.6   68.6   67.6    12   13.9   0.0   ---   0.00   0.0   ---   68.6   63.0   63.0    ---  30.149  0.00  0.00   ---      ---    ---     ---   ---   ---   0.000   0.075   72.6    30   39.4   70.1   6.15  .0745    0.000   679    2    100.0   30 
10/17/18  1:30p   69.6   69.6   68.4    12   14.7   0.0   ---   0.00   0.0   ---   69.6   64.2   64.2    ---  30.131  0.00  0.00   ---      ---    ---     ---   ---   ---   0.000   0.096   72.8    30   39.5   70.4   6.14  .0744    0.000   684    2    100.0   30 
10/17/18  2:00p   69.1   69.6   68.8    12   14.3   0.0   ---   0.00   0.0   ---   69.1   63.6   63.6    ---  30.119  0.00  0.00   ---      ---    ---     ---   ---   ---   0.000   0.085   72.8    26   35.9   70.0   5.54  .0745    0.000   681    2    100.0   30 
10/17/18  2:30p   69.9   69.9   69.1    14   18.5   0.0   ---   0.00   0.0   ---   69.9   64.8   64.8    ---  30.107  0.00  0.00   ---      ---    ---     ---   ---   ---   0.000   0.102   73.0    22   31.9   69.9   4.89  .0745    0.000   665    2     99.7   30 
10/17/18  3:00p   70.4   70.8   69.6    12   15.3   0.0   NNW   0.00   8.0   NNW   70.4   65.3   65.3    ---  30.100  0.00  0.00   ---      ---    ---     ---   ---   ---   0.000   0.113   73.1    22   32.0   70.0   4.89  .0745    0.000   684    2    100.0   30 
10/17/18  3:30p   68.8   70.4   68.8    12   14.1   0.0    NW   0.00  10.0   NNW   68.8   63.2   63.2    ---  30.100  0.00  0.00   ---      ---    ---     ---   ---   ---   0.000   0.079   73.0    20   29.5   69.7   4.55  .0745    0.000   684    2    100.0   30 
10/17/18  4:00p   68.6   69.1   68.3    13   15.7   7.0    NW   3.50  14.0   NNW   68.6   63.1   63.1    ---  30.098  0.00  0.00   ---      ---    ---     ---   ---   ---   0.000   0.075   74.0    23   33.8   71.4   5.07  .0743    0.000   681    2    100.0   30 
10/17/18  4:30p   68.1   68.6   67.9    13   15.3   8.0    NW   4.00  15.0   NNW   67.4   62.5   61.8    ---  30.097  0.00  0.00   ---      ---    ---     ---   ---   ---   0.000   0.065   74.3    24   35.2   71.9   5.18  .0742    0.000   668    2    100.0   30 
10/17/18  5:00p   67.8   68.1   67.8    13   15.1   7.0    NW   3.50  12.0   NNW   67.8   62.2   62.2    ---  30.095  0.00  0.00   ---      ---    ---     ---   ---   ---   0.000   0.058   74.3    25   36.2   72.1   5.29  .0742    0.000   685    2    100.0   30 
10/17/18  5:30p   66.9   67.8   66.9    14   16.1   5.0    NW   2.50   9.0   WNW   66.9   61.3   61.3    ---  30.097  0.00  0.00   ---      ---    ---     ---   ---   ---   0.000   0.040   74.5    25   36.4   72.3   5.28  .0742    0.000   682    2    100.0   30 
10/17/18  6:00p   64.7   66.9   64.7    15   15.9   2.0    NW   1.00   9.0    NW   64.7   59.3   59.3    ---  30.102  0.00  0.00   ---      ---    ---     ---   ---   ---   0.006   0.000   74.5    25   36.4   72.3   5.28  .0742    0.000   680    2    100.0   30 
10/17/18  6:30p   57.0   64.7   57.0    24   20.5   0.0   ---   0.00   0.0   ---   57.0   53.2   53.2    ---  30.108  0.00  0.00   ---      ---    ---     ---   ---   ---   0.167   0.000   74.7    27   38.5   72.7   5.57  .0741    0.000   682    2    100.0   30 
10/17/18  7:00p   54.6   57.0   54.5    26   20.4   0.0   ---   0.00   0.0   ---   54.6   51.4   51.4    ---  30.123  0.00  0.00   ---      ---    ---     ---   ---   ---   0.217   0.000   75.0    28   39.7   73.1   5.65  .0741    0.000   669    2    100.0   30 
10/17/18  7:30p   54.7   54.8   54.3    26   20.4   0.0   ---   0.00   0.0   ---   54.7   51.5   51.5    ---  30.132  0.00  0.00   ---      ---    ---     ---   ---   ---   0.215   0.000   75.0    28   39.7   73.1   5.65  .0741    0.000   685    2    100.0   30 
10/17/18  8:00p   54.4   55.0   54.3    27   21.1   0.0   ---   0.00   0.0   ---   54.4   51.3   51.3    ---  30.139  0.00  0.00   ---      ---    ---     ---   ---   ---   0.221   0.000   75.0    28   39.7   73.1   5.65  .0742    0.000   683    2    100.0   30 
10/17/18  8:30p   54.4   54.9   54.3    27   21.1   0.0   ---   0.00   0.0   ---   54.4   51.3   51.3    ---  30.144  0.00  0.00   ---      ---    ---     ---   ---   ---   0.221   0.000   75.0    29   40.6   73.2   5.85  .0741    0.000   676    2    100.0   30 
10/17/18  9:00p   54.6   54.7   54.4    27   21.2   0.0   ---   0.00   0.0   ---   54.6   51.5   51.5    ---  30.150  0.00  0.00   ---      ---    ---     ---   ---   ---   0.217   0.000   75.0    31   42.3   73.4   6.25  .0741    0.000   669    2    100.0   30 
10/17/18  9:30p   54.3   54.5   54.2    28   21.8   0.0   ---   0.00   0.0   ---   54.3   51.3   51.3    ---  30.155  0.00  0.00   ---      ---    ---     ---   ---   ---   0.223   0.000   75.0    32   43.1   73.5   6.45  .0741    0.000   561    2     84.1   30 
10/17/18 10:00p   54.0   54.6   53.9    28   21.6   0.0   ---   0.00   0.0   ---   54.0   51.1   51.1    ---  30.165  0.00  0.00   ---      ---    ---     ---   ---   ---   0.229   0.000   75.0    32   43.1   73.5   6.45  .0741    0.000   683    2    100.0   30 
10/17/18 10:30p   53.9   54.0   53.8    28   21.5   0.0   ---   0.00   0.0   ---   53.9   51.0   51.0    ---  30.166  0.00  0.00   ---      ---    ---     ---   ---   ---   0.231   0.000   75.0    32   43.1   73.5   6.45  .0741    0.000   684    2    100.0   30 
10/17/18 11:00p   53.4   53.9   53.3    27   20.2   0.0   ---   0.00   0.0   ---   53.4   50.5   50.5    ---  30.166  0.00  0.00   ---      ---    ---     ---   ---   ---   0.242   0.000   74.9    33   43.8   73.5   6.55  .0741    0.000   682    2    100.0   30 
10/17/18 11:30p   51.6   53.5   51.3    29   20.3   0.0   ---   0.00   0.0   ---   51.6   49.3   49.3    ---  30.164  0.00  0.00   ---      ---    ---     ---   ---   ---   0.279   0.000   74.3    33   43.3   72.9   6.56  .0742    0.000   666    2     99.9   30 
10/18/18 12:00a   52.2   52.2   51.5    28   20.0   0.0   ---   0.00   0.0   ---   52.2   49.6   49.6    ---  30.164  0.00  0.00   ---      ---    ---     ---   ---   ---   0.267   0.000   73.6    32   41.9   71.8   6.48  .0744    0.000   667    2    100.0   30